sensor_id;sensor_type;location;lat;lon;timestamp;P1;durP1;ratioP1;P2;durP2;ratioP2
12165;SDS011;6146;48.128;11.476;2023-08-31T00:00:43;2.57;;;2.37;;
12165;SDS011;6146;48.128;11.476;2023-08-31T00:03:09;3.20;;;2.40;;
12165;SDS011;6146;48.128;11.476;2023-08-31T00:05:40;2.50;;;2.30;;
12165;SDS011;6146;48.128;11.476;2023-08-31T00:08:06;2.57;;;2.37;;
12165;SDS011;6146;48.128;11.476;2023-08-31T00:10:32;2.50;;;2.30;;
12165;SDS011;6146;48.128;11.476;2023-08-31T00:13:00;2.33;;;2.13;;
12165;SDS011;6146;48.128;11.476;2023-08-31T00:15:29;2.80;;;2.40;;
12165;SDS011;6146;48.128;11.476;2023-08-31T00:17:57;2.70;;;2.50;;
12165;SDS011;6146;48.128;11.476;2023-08-31T00:20:23;2.63;;;2.43;;
12165;SDS011;6146;48.128;11.476;2023-08-31T00:22:49;2.70;;;2.50;;
12165;SDS011;6146;48.128;11.476;2023-08-31T00:25:14;2.87;;;2.67;;
12165;SDS011;6146;48.128;11.476;2023-08-31T00:27:40;2.67;;;2.43;;
12165;SDS011;6146;48.128;11.476;2023-08-31T00:30:06;3.00;;;2.67;;
12165;SDS011;6146;48.128;11.476;2023-08-31T00:32:36;2.63;;;2.43;;
12165;SDS011;6146;48.128;11.476;2023-08-31T00:35:04;2.70;;;2.50;;
12165;SDS011;6146;48.128;11.476;2023-08-31T00:37:30;2.93;;;2.73;;
12165;SDS011;6146;48.128;11.476;2023-08-31T00:39:55;4.77;;;2.47;;
12165;SDS011;6146;48.128;11.476;2023-08-31T00:42:21;2.33;;;2.23;;
12165;SDS011;6146;48.128;11.476;2023-08-31T00:44:47;2.67;;;2.47;;
12165;SDS011;6146;48.128;11.476;2023-08-31T00:47:13;2.60;;;2.40;;
12165;SDS011;6146;48.128;11.476;2023-08-31T00:49:39;2.80;;;2.60;;
12165;SDS011;6146;48.128;11.476;2023-08-31T00:52:05;2.97;;;2.77;;
12165;SDS011;6146;48.128;11.476;2023-08-31T00:54:31;2.60;;;2.40;;
12165;SDS011;6146;48.128;11.476;2023-08-31T00:56:58;3.07;;;2.70;;
12165;SDS011;6146;48.128;11.476;2023-08-31T00:59:23;4.03;;;2.70;;
12165;SDS011;6146;48.128;11.476;2023-08-31T01:10:32;2.73;;;2.53;;
12165;SDS011;6146;48.128;11.476;2023-08-31T01:13:12;3.10;;;2.80;;
12165;SDS011;6146;48.128;11.476;2023-08-31T01:15:46;2.90;;;2.70;;
12165;SDS011;6146;48.128;11.476;2023-08-31T01:18:18;3.13;;;2.83;;
12165;SDS011;6146;48.128;11.476;2023-08-31T01:23:20;2.83;;;2.60;;
12165;SDS011;6146;48.128;11.476;2023-08-31T01:25:52;2.80;;;2.60;;
12165;SDS011;6146;48.128;11.476;2023-08-31T01:28:19;4.20;;;2.60;;
12165;SDS011;6146;48.128;11.476;2023-08-31T01:30:44;3.23;;;2.80;;
12165;SDS011;6146;48.128;11.476;2023-08-31T01:33:10;3.10;;;2.90;;
12165;SDS011;6146;48.128;11.476;2023-08-31T01:35:48;3.37;;;2.50;;
12165;SDS011;6146;48.128;11.476;2023-08-31T01:38:18;3.50;;;2.70;;
12165;SDS011;6146;48.128;11.476;2023-08-31T01:40:53;2.70;;;2.50;;
12165;SDS011;6146;48.128;11.476;2023-08-31T01:43:24;3.17;;;2.87;;
12165;SDS011;6146;48.128;11.476;2023-08-31T01:45:51;2.73;;;2.53;;
12165;SDS011;6146;48.128;11.476;2023-08-31T01:48:17;2.73;;;2.50;;
12165;SDS011;6146;48.128;11.476;2023-08-31T01:50:43;2.83;;;2.60;;
12165;SDS011;6146;48.128;11.476;2023-08-31T01:53:08;3.53;;;3.23;;
12165;SDS011;6146;48.128;11.476;2023-08-31T01:55:34;2.77;;;2.57;;
12165;SDS011;6146;48.128;11.476;2023-08-31T01:58:00;2.90;;;2.70;;
12165;SDS011;6146;48.128;11.476;2023-08-31T02:00:26;3.30;;;3.00;;
12165;SDS011;6146;48.128;11.476;2023-08-31T02:02:51;3.20;;;2.70;;
12165;SDS011;6146;48.128;11.476;2023-08-31T02:05:17;4.53;;;3.17;;
12165;SDS011;6146;48.128;11.476;2023-08-31T02:07:42;2.90;;;2.70;;
12165;SDS011;6146;48.128;11.476;2023-08-31T02:10:08;3.13;;;2.40;;
12165;SDS011;6146;48.128;11.476;2023-08-31T02:12:34;3.13;;;2.83;;
12165;SDS011;6146;48.128;11.476;2023-08-31T02:15:02;2.60;;;2.40;;
12165;SDS011;6146;48.128;11.476;2023-08-31T02:17:29;2.90;;;2.70;;
12165;SDS011;6146;48.128;11.476;2023-08-31T02:19:54;3.07;;;2.40;;
12165;SDS011;6146;48.128;11.476;2023-08-31T02:22:20;3.57;;;3.13;;
12165;SDS011;6146;48.128;11.476;2023-08-31T02:24:46;3.23;;;2.93;;
12165;SDS011;6146;48.128;11.476;2023-08-31T02:27:11;3.50;;;3.00;;
12165;SDS011;6146;48.128;11.476;2023-08-31T02:29:37;3.70;;;3.13;;
12165;SDS011;6146;48.128;11.476;2023-08-31T02:32:06;6.00;;;3.50;;
12165;SDS011;6146;48.128;11.476;2023-08-31T02:34:32;4.77;;;3.80;;
12165;SDS011;6146;48.128;11.476;2023-08-31T02:36:57;6.40;;;4.00;;
12165;SDS011;6146;48.128;11.476;2023-08-31T02:39:23;5.63;;;4.40;;
12165;SDS011;6146;48.128;11.476;2023-08-31T02:41:49;4.90;;;4.47;;
12165;SDS011;6146;48.128;11.476;2023-08-31T02:44:14;5.07;;;4.53;;
12165;SDS011;6146;48.128;11.476;2023-08-31T02:46:40;5.50;;;5.00;;
12165;SDS011;6146;48.128;11.476;2023-08-31T02:49:05;4.97;;;4.57;;
12165;SDS011;6146;48.128;11.476;2023-08-31T02:51:31;5.47;;;4.97;;
12165;SDS011;6146;48.128;11.476;2023-08-31T02:53:56;4.60;;;4.20;;
12165;SDS011;6146;48.128;11.476;2023-08-31T02:56:22;5.43;;;4.93;;
12165;SDS011;6146;48.128;11.476;2023-08-31T02:58:48;5.13;;;4.73;;
12165;SDS011;6146;48.128;11.476;2023-08-31T03:01:13;5.37;;;4.43;;
12165;SDS011;6146;48.128;11.476;2023-08-31T03:03:39;4.87;;;4.37;;
12165;SDS011;6146;48.128;11.476;2023-08-31T03:06:06;4.30;;;3.90;;
12165;SDS011;6146;48.128;11.476;2023-08-31T03:08:35;4.60;;;4.20;;
12165;SDS011;6146;48.128;11.476;2023-08-31T03:11:02;4.43;;;4.03;;
12165;SDS011;6146;48.128;11.476;2023-08-31T03:13:28;5.77;;;4.47;;
12165;SDS011;6146;48.128;11.476;2023-08-31T03:15:54;5.70;;;3.80;;
12165;SDS011;6146;48.128;11.476;2023-08-31T03:18:21;4.00;;;3.67;;
12165;SDS011;6146;48.128;11.476;2023-08-31T03:20:47;4.00;;;3.70;;
12165;SDS011;6146;48.128;11.476;2023-08-31T03:23:12;3.57;;;3.27;;
12165;SDS011;6146;48.128;11.476;2023-08-31T03:25:38;3.77;;;3.47;;
12165;SDS011;6146;48.128;11.476;2023-08-31T03:28:03;3.80;;;3.47;;
12165;SDS011;6146;48.128;11.476;2023-08-31T03:30:29;3.73;;;3.17;;
12165;SDS011;6146;48.128;11.476;2023-08-31T03:32:54;2.87;;;2.67;;
12165;SDS011;6146;48.128;11.476;2023-08-31T03:35:20;3.30;;;3.00;;
12165;SDS011;6146;48.128;11.476;2023-08-31T03:37:51;2.97;;;2.60;;
12165;SDS011;6146;48.128;11.476;2023-08-31T03:40:17;3.70;;;3.10;;
12165;SDS011;6146;48.128;11.476;2023-08-31T03:42:43;3.20;;;2.90;;
12165;SDS011;6146;48.128;11.476;2023-08-31T03:45:08;3.30;;;3.00;;
12165;SDS011;6146;48.128;11.476;2023-08-31T03:47:34;3.33;;;2.67;;
12165;SDS011;6146;48.128;11.476;2023-08-31T03:49:59;2.87;;;2.67;;
12165;SDS011;6146;48.128;11.476;2023-08-31T03:52:25;3.07;;;2.60;;
12165;SDS011;6146;48.128;11.476;2023-08-31T03:54:51;3.90;;;2.90;;
12165;SDS011;6146;48.128;11.476;2023-08-31T03:57:17;3.77;;;2.70;;
12165;SDS011;6146;48.128;11.476;2023-08-31T03:59:43;3.93;;;2.87;;
12165;SDS011;6146;48.128;11.476;2023-08-31T04:02:08;2.90;;;2.63;;
12165;SDS011;6146;48.128;11.476;2023-08-31T04:04:34;2.80;;;2.60;;
12165;SDS011;6146;48.128;11.476;2023-08-31T04:07:00;3.17;;;2.87;;
12165;SDS011;6146;48.128;11.476;2023-08-31T04:09:25;2.53;;;2.33;;
12165;SDS011;6146;48.128;11.476;2023-08-31T04:11:51;4.77;;;2.80;;
12165;SDS011;6146;48.128;11.476;2023-08-31T04:14:16;3.67;;;3.00;;
12165;SDS011;6146;48.128;11.476;2023-08-31T04:16:43;3.10;;;2.80;;
12165;SDS011;6146;48.128;11.476;2023-08-31T04:19:09;3.23;;;2.57;;
12165;SDS011;6146;48.128;11.476;2023-08-31T04:21:35;2.70;;;2.50;;
12165;SDS011;6146;48.128;11.476;2023-08-31T04:24:02;3.10;;;2.77;;
12165;SDS011;6146;48.128;11.476;2023-08-31T04:26:27;2.77;;;2.57;;
12165;SDS011;6146;48.128;11.476;2023-08-31T04:28:53;3.13;;;2.83;;
12165;SDS011;6146;48.128;11.476;2023-08-31T04:31:18;5.03;;;3.50;;
12165;SDS011;6146;48.128;11.476;2023-08-31T04:33:44;3.47;;;3.17;;
12165;SDS011;6146;48.128;11.476;2023-08-31T04:36:10;3.17;;;2.87;;
12165;SDS011;6146;48.128;11.476;2023-08-31T04:38:37;3.47;;;3.07;;
12165;SDS011;6146;48.128;11.476;2023-08-31T04:41:03;3.43;;;3.13;;
12165;SDS011;6146;48.128;11.476;2023-08-31T04:43:28;3.40;;;2.93;;
12165;SDS011;6146;48.128;11.476;2023-08-31T04:45:54;3.43;;;3.10;;
12165;SDS011;6146;48.128;11.476;2023-08-31T04:48:20;3.43;;;3.13;;
12165;SDS011;6146;48.128;11.476;2023-08-31T04:50:46;4.00;;;3.60;;
12165;SDS011;6146;48.128;11.476;2023-08-31T04:53:12;3.53;;;3.23;;
12165;SDS011;6146;48.128;11.476;2023-08-31T04:55:37;3.10;;;2.80;;
12165;SDS011;6146;48.128;11.476;2023-08-31T04:58:03;3.57;;;3.27;;
12165;SDS011;6146;48.128;11.476;2023-08-31T05:00:29;3.70;;;3.40;;
12165;SDS011;6146;48.128;11.476;2023-08-31T05:02:55;3.47;;;3.17;;
12165;SDS011;6146;48.128;11.476;2023-08-31T05:05:21;5.03;;;3.40;;
12165;SDS011;6146;48.128;11.476;2023-08-31T05:07:47;3.17;;;2.93;;
12165;SDS011;6146;48.128;11.476;2023-08-31T05:10:12;3.93;;;3.63;;
12165;SDS011;6146;48.128;11.476;2023-08-31T05:12:38;3.30;;;3.00;;
12165;SDS011;6146;48.128;11.476;2023-08-31T05:15:04;3.40;;;3.10;;
12165;SDS011;6146;48.128;11.476;2023-08-31T05:17:30;3.40;;;3.10;;
12165;SDS011;6146;48.128;11.476;2023-08-31T05:19:56;3.47;;;3.17;;
12165;SDS011;6146;48.128;11.476;2023-08-31T05:22:21;3.87;;;3.00;;
12165;SDS011;6146;48.128;11.476;2023-08-31T05:24:47;3.33;;;3.03;;
12165;SDS011;6146;48.128;11.476;2023-08-31T05:27:13;4.70;;;3.70;;
12165;SDS011;6146;48.128;11.476;2023-08-31T05:29:38;3.60;;;3.30;;
12165;SDS011;6146;48.128;11.476;2023-08-31T05:32:04;3.67;;;3.37;;
12165;SDS011;6146;48.128;11.476;2023-08-31T05:34:29;3.60;;;3.30;;
12165;SDS011;6146;48.128;11.476;2023-08-31T05:36:58;3.10;;;2.80;;
12165;SDS011;6146;48.128;11.476;2023-08-31T05:39:23;3.37;;;3.07;;
12165;SDS011;6146;48.128;11.476;2023-08-31T05:41:50;3.30;;;3.03;;
12165;SDS011;6146;48.128;11.476;2023-08-31T05:44:15;3.87;;;3.50;;
12165;SDS011;6146;48.128;11.476;2023-08-31T05:46:41;3.60;;;3.30;;
12165;SDS011;6146;48.128;11.476;2023-08-31T05:49:07;3.40;;;3.00;;
12165;SDS011;6146;48.128;11.476;2023-08-31T05:51:33;3.00;;;2.77;;
12165;SDS011;6146;48.128;11.476;2023-08-31T05:53:59;3.60;;;3.30;;
12165;SDS011;6146;48.128;11.476;2023-08-31T05:56:25;3.70;;;3.30;;
12165;SDS011;6146;48.128;11.476;2023-08-31T05:58:50;4.00;;;3.67;;
12165;SDS011;6146;48.128;11.476;2023-08-31T06:01:19;3.57;;;3.27;;
12165;SDS011;6146;48.128;11.476;2023-08-31T06:03:45;3.50;;;3.20;;
12165;SDS011;6146;48.128;11.476;2023-08-31T06:06:11;3.60;;;3.30;;
12165;SDS011;6146;48.128;11.476;2023-08-31T06:08:36;3.70;;;3.40;;
12165;SDS011;6146;48.128;11.476;2023-08-31T06:11:02;4.20;;;3.80;;
12165;SDS011;6146;48.128;11.476;2023-08-31T06:13:27;4.00;;;3.60;;
12165;SDS011;6146;48.128;11.476;2023-08-31T06:15:53;4.20;;;3.80;;
12165;SDS011;6146;48.128;11.476;2023-08-31T06:18:20;3.73;;;3.40;;
12165;SDS011;6146;48.128;11.476;2023-08-31T06:20:46;4.77;;;3.97;;
12165;SDS011;6146;48.128;11.476;2023-08-31T06:23:13;3.67;;;3.20;;
12165;SDS011;6146;48.128;11.476;2023-08-31T06:25:39;3.87;;;3.27;;
12165;SDS011;6146;48.128;11.476;2023-08-31T06:28:04;4.00;;;3.60;;
12165;SDS011;6146;48.128;11.476;2023-08-31T06:30:33;3.50;;;3.20;;
12165;SDS011;6146;48.128;11.476;2023-08-31T06:32:59;3.33;;;3.10;;
12165;SDS011;6146;48.128;11.476;2023-08-31T06:35:25;4.67;;;3.60;;
12165;SDS011;6146;48.128;11.476;2023-08-31T06:37:50;3.90;;;3.40;;
12165;SDS011;6146;48.128;11.476;2023-08-31T06:40:16;3.17;;;2.87;;
12165;SDS011;6146;48.128;11.476;2023-08-31T06:42:42;3.43;;;3.13;;
12165;SDS011;6146;48.128;11.476;2023-08-31T06:45:08;3.80;;;3.03;;
12165;SDS011;6146;48.128;11.476;2023-08-31T06:47:33;3.27;;;2.70;;
12165;SDS011;6146;48.128;11.476;2023-08-31T06:49:59;3.07;;;2.77;;
12165;SDS011;6146;48.128;11.476;2023-08-31T06:52:25;3.87;;;2.97;;
12165;SDS011;6146;48.128;11.476;2023-08-31T06:54:51;2.80;;;2.50;;
12165;SDS011;6146;48.128;11.476;2023-08-31T06:57:21;2.80;;;2.57;;
12165;SDS011;6146;48.128;11.476;2023-08-31T06:59:47;3.43;;;3.00;;
12165;SDS011;6146;48.128;11.476;2023-08-31T07:02:13;6.67;;;3.67;;
12165;SDS011;6146;48.128;11.476;2023-08-31T07:04:39;3.23;;;2.93;;
12165;SDS011;6146;48.128;11.476;2023-08-31T07:07:05;3.40;;;2.70;;
12165;SDS011;6146;48.128;11.476;2023-08-31T07:09:32;3.47;;;2.70;;
12165;SDS011;6146;48.128;11.476;2023-08-31T07:11:57;3.20;;;2.93;;
12165;SDS011;6146;48.128;11.476;2023-08-31T07:14:23;3.87;;;2.83;;
12165;SDS011;6146;48.128;11.476;2023-08-31T07:16:49;2.63;;;2.43;;
12165;SDS011;6146;48.128;11.476;2023-08-31T07:19:15;3.10;;;2.70;;
12165;SDS011;6146;48.128;11.476;2023-08-31T07:21:40;2.93;;;2.73;;
12165;SDS011;6146;48.128;11.476;2023-08-31T07:24:06;3.77;;;2.80;;
12165;SDS011;6146;48.128;11.476;2023-08-31T07:26:32;3.50;;;2.50;;
12165;SDS011;6146;48.128;11.476;2023-08-31T07:28:59;2.60;;;2.40;;
12165;SDS011;6146;48.128;11.476;2023-08-31T07:31:26;2.53;;;2.33;;
12165;SDS011;6146;48.128;11.476;2023-08-31T07:33:52;3.13;;;2.53;;
12165;SDS011;6146;48.128;11.476;2023-08-31T07:36:17;4.37;;;2.73;;
12165;SDS011;6146;48.128;11.476;2023-08-31T07:38:43;2.77;;;2.33;;
12165;SDS011;6146;48.128;11.476;2023-08-31T07:41:08;3.10;;;2.53;;
12165;SDS011;6146;48.128;11.476;2023-08-31T07:43:34;3.57;;;2.23;;
12165;SDS011;6146;48.128;11.476;2023-08-31T07:45:59;2.93;;;2.60;;
12165;SDS011;6146;48.128;11.476;2023-08-31T07:48:25;2.73;;;2.50;;
12165;SDS011;6146;48.128;11.476;2023-08-31T07:50:51;2.40;;;2.20;;
12165;SDS011;6146;48.128;11.476;2023-08-31T07:53:16;2.93;;;2.63;;
12165;SDS011;6146;48.128;11.476;2023-08-31T07:55:50;2.50;;;2.23;;
12165;SDS011;6146;48.128;11.476;2023-08-31T07:58:19;3.53;;;2.40;;
12165;SDS011;6146;48.128;11.476;2023-08-31T08:00:48;3.60;;;2.40;;
12165;SDS011;6146;48.128;11.476;2023-08-31T08:03:14;2.57;;;2.37;;
12165;SDS011;6146;48.128;11.476;2023-08-31T08:05:39;3.37;;;2.10;;
12165;SDS011;6146;48.128;11.476;2023-08-31T08:08:06;3.73;;;2.20;;
12165;SDS011;6146;48.128;11.476;2023-08-31T08:10:32;3.40;;;1.93;;
12165;SDS011;6146;48.128;11.476;2023-08-31T08:12:57;2.73;;;2.33;;
12165;SDS011;6146;48.128;11.476;2023-08-31T08:15:23;3.23;;;2.20;;
12165;SDS011;6146;48.128;11.476;2023-08-31T08:17:49;2.50;;;2.10;;
12165;SDS011;6146;48.128;11.476;2023-08-31T08:20:15;3.47;;;2.07;;
12165;SDS011;6146;48.128;11.476;2023-08-31T08:22:40;3.00;;;2.10;;
12165;SDS011;6146;48.128;11.476;2023-08-31T08:25:06;2.47;;;2.10;;
12165;SDS011;6146;48.128;11.476;2023-08-31T08:27:32;2.07;;;1.87;;
12165;SDS011;6146;48.128;11.476;2023-08-31T08:29:58;2.77;;;2.17;;
12165;SDS011;6146;48.128;11.476;2023-08-31T08:32:24;3.67;;;2.10;;
12165;SDS011;6146;48.128;11.476;2023-08-31T08:34:50;2.60;;;2.00;;
12165;SDS011;6146;48.128;11.476;2023-08-31T08:37:16;3.53;;;2.17;;
12165;SDS011;6146;48.128;11.476;2023-08-31T08:39:42;2.67;;;2.10;;
12165;SDS011;6146;48.128;11.476;2023-08-31T08:42:07;3.50;;;2.27;;
12165;SDS011;6146;48.128;11.476;2023-08-31T08:44:35;3.07;;;2.20;;
12165;SDS011;6146;48.128;11.476;2023-08-31T08:47:01;2.50;;;1.90;;
12165;SDS011;6146;48.128;11.476;2023-08-31T08:49:28;5.80;;;2.30;;
12165;SDS011;6146;48.128;11.476;2023-08-31T08:51:56;3.50;;;2.27;;
12165;SDS011;6146;48.128;11.476;2023-08-31T08:54:23;2.40;;;2.07;;
12165;SDS011;6146;48.128;11.476;2023-08-31T08:56:49;2.57;;;1.93;;
12165;SDS011;6146;48.128;11.476;2023-08-31T08:59:15;3.50;;;2.00;;
12165;SDS011;6146;48.128;11.476;2023-08-31T09:01:41;4.43;;;2.10;;
12165;SDS011;6146;48.128;11.476;2023-08-31T09:04:08;3.07;;;2.07;;
12165;SDS011;6146;48.128;11.476;2023-08-31T09:06:34;2.77;;;2.00;;
12165;SDS011;6146;48.128;11.476;2023-08-31T09:09:00;2.20;;;1.90;;
12165;SDS011;6146;48.128;11.476;2023-08-31T09:11:26;2.30;;;2.00;;
12165;SDS011;6146;48.128;11.476;2023-08-31T09:13:52;2.00;;;1.70;;
12165;SDS011;6146;48.128;11.476;2023-08-31T09:16:23;2.43;;;1.83;;
12165;SDS011;6146;48.128;11.476;2023-08-31T09:18:54;3.03;;;1.97;;
12165;SDS011;6146;48.128;11.476;2023-08-31T09:21:20;2.87;;;2.30;;
12165;SDS011;6146;48.128;11.476;2023-08-31T09:23:58;2.47;;;1.70;;
12165;SDS011;6146;48.128;11.476;2023-08-31T09:26:24;3.63;;;2.10;;
12165;SDS011;6146;48.128;11.476;2023-08-31T09:28:50;3.03;;;1.90;;
12165;SDS011;6146;48.128;11.476;2023-08-31T09:31:16;5.00;;;2.20;;
12165;SDS011;6146;48.128;11.476;2023-08-31T09:33:51;3.10;;;2.17;;
12165;SDS011;6146;48.128;11.476;2023-08-31T09:36:17;2.47;;;1.80;;
12165;SDS011;6146;48.128;11.476;2023-08-31T09:38:43;1.90;;;1.80;;
12165;SDS011;6146;48.128;11.476;2023-08-31T09:41:09;3.50;;;2.10;;
12165;SDS011;6146;48.128;11.476;2023-08-31T09:43:35;2.63;;;2.30;;
12165;SDS011;6146;48.128;11.476;2023-08-31T09:46:01;3.50;;;2.07;;
12165;SDS011;6146;48.128;11.476;2023-08-31T09:48:28;2.77;;;2.20;;
12165;SDS011;6146;48.128;11.476;2023-08-31T09:50:54;2.73;;;1.80;;
12165;SDS011;6146;48.128;11.476;2023-08-31T09:53:20;3.23;;;1.60;;
12165;SDS011;6146;48.128;11.476;2023-08-31T09:55:48;2.73;;;2.20;;
12165;SDS011;6146;48.128;11.476;2023-08-31T09:58:17;2.37;;;1.73;;
12165;SDS011;6146;48.128;11.476;2023-08-31T10:00:45;4.90;;;2.20;;
12165;SDS011;6146;48.128;11.476;2023-08-31T10:03:11;3.97;;;2.17;;
12165;SDS011;6146;48.128;11.476;2023-08-31T10:05:40;2.73;;;2.00;;
12165;SDS011;6146;48.128;11.476;2023-08-31T10:08:07;2.23;;;1.90;;
12165;SDS011;6146;48.128;11.476;2023-08-31T10:10:33;3.53;;;2.07;;
12165;SDS011;6146;48.128;11.476;2023-08-31T10:13:00;2.23;;;1.73;;
12165;SDS011;6146;48.128;11.476;2023-08-31T10:15:33;2.67;;;2.10;;
12165;SDS011;6146;48.128;11.476;2023-08-31T10:17:59;1.70;;;1.60;;
12165;SDS011;6146;48.128;11.476;2023-08-31T10:20:26;2.30;;;2.07;;
12165;SDS011;6146;48.128;11.476;2023-08-31T10:22:56;2.40;;;1.77;;
12165;SDS011;6146;48.128;11.476;2023-08-31T10:28:18;2.37;;;1.97;;
12165;SDS011;6146;48.128;11.476;2023-08-31T10:31:09;3.23;;;1.70;;
12165;SDS011;6146;48.128;11.476;2023-08-31T10:33:45;3.53;;;2.13;;
12165;SDS011;6146;48.128;11.476;2023-08-31T10:36:15;2.70;;;1.83;;
12165;SDS011;6146;48.128;11.476;2023-08-31T10:38:45;2.37;;;2.10;;
12165;SDS011;6146;48.128;11.476;2023-08-31T10:43:54;2.23;;;1.90;;
12165;SDS011;6146;48.128;11.476;2023-08-31T10:46:36;3.17;;;2.10;;
12165;SDS011;6146;48.128;11.476;2023-08-31T10:51:40;2.50;;;1.90;;
12165;SDS011;6146;48.128;11.476;2023-08-31T10:54:19;3.43;;;1.87;;
12165;SDS011;6146;48.128;11.476;2023-08-31T10:57:11;3.13;;;1.80;;
12165;SDS011;6146;48.128;11.476;2023-08-31T10:59:45;3.77;;;1.90;;
12165;SDS011;6146;48.128;11.476;2023-08-31T11:07:35;2.20;;;2.00;;
12165;SDS011;6146;48.128;11.476;2023-08-31T11:10:15;3.30;;;2.30;;
12165;SDS011;6146;48.128;11.476;2023-08-31T11:12:46;3.23;;;2.10;;
12165;SDS011;6146;48.128;11.476;2023-08-31T11:15:14;3.63;;;2.33;;
12165;SDS011;6146;48.128;11.476;2023-08-31T11:17:42;3.83;;;2.60;;
12165;SDS011;6146;48.128;11.476;2023-08-31T11:20:08;2.90;;;2.17;;
12165;SDS011;6146;48.128;11.476;2023-08-31T11:22:48;3.87;;;2.30;;
12165;SDS011;6146;48.128;11.476;2023-08-31T11:25:16;3.73;;;2.63;;
12165;SDS011;6146;48.128;11.476;2023-08-31T11:27:42;2.67;;;2.10;;
12165;SDS011;6146;48.128;11.476;2023-08-31T11:30:18;4.67;;;2.50;;
12165;SDS011;6146;48.128;11.476;2023-08-31T11:32:49;6.00;;;2.67;;
12165;SDS011;6146;48.128;11.476;2023-08-31T11:35:16;4.47;;;2.23;;
12165;SDS011;6146;48.128;11.476;2023-08-31T11:37:43;4.67;;;2.23;;
12165;SDS011;6146;48.128;11.476;2023-08-31T11:40:10;2.20;;;2.00;;
12165;SDS011;6146;48.128;11.476;2023-08-31T11:42:36;4.20;;;2.37;;
12165;SDS011;6146;48.128;11.476;2023-08-31T11:45:02;5.00;;;2.60;;
12165;SDS011;6146;48.128;11.476;2023-08-31T11:47:30;3.53;;;2.00;;
12165;SDS011;6146;48.128;11.476;2023-08-31T11:49:56;3.67;;;2.20;;
12165;SDS011;6146;48.128;11.476;2023-08-31T11:52:23;3.80;;;2.50;;
12165;SDS011;6146;48.128;11.476;2023-08-31T11:54:51;5.03;;;2.50;;
12165;SDS011;6146;48.128;11.476;2023-08-31T11:57:18;4.77;;;2.33;;
12165;SDS011;6146;48.128;11.476;2023-08-31T11:59:49;4.57;;;2.80;;
12165;SDS011;6146;48.128;11.476;2023-08-31T12:02:17;4.00;;;2.17;;
12165;SDS011;6146;48.128;11.476;2023-08-31T12:04:44;2.77;;;2.23;;
12165;SDS011;6146;48.128;11.476;2023-08-31T12:07:11;3.03;;;2.10;;
12165;SDS011;6146;48.128;11.476;2023-08-31T12:09:40;8.90;;;2.20;;
12165;SDS011;6146;48.128;11.476;2023-08-31T12:12:07;3.37;;;1.90;;
12165;SDS011;6146;48.128;11.476;2023-08-31T12:14:33;2.40;;;2.00;;
12165;SDS011;6146;48.128;11.476;2023-08-31T12:17:10;3.27;;;2.10;;
12165;SDS011;6146;48.128;11.476;2023-08-31T12:19:36;4.17;;;1.80;;
12165;SDS011;6146;48.128;11.476;2023-08-31T12:22:06;3.80;;;1.73;;
12165;SDS011;6146;48.128;11.476;2023-08-31T12:24:41;3.87;;;2.10;;
12165;SDS011;6146;48.128;11.476;2023-08-31T12:27:07;2.47;;;1.70;;
12165;SDS011;6146;48.128;11.476;2023-08-31T12:29:33;2.83;;;2.00;;
12165;SDS011;6146;48.128;11.476;2023-08-31T12:31:58;1.90;;;1.60;;
12165;SDS011;6146;48.128;11.476;2023-08-31T12:34:24;2.37;;;2.10;;
12165;SDS011;6146;48.128;11.476;2023-08-31T12:36:51;2.33;;;1.70;;
12165;SDS011;6146;48.128;11.476;2023-08-31T12:39:17;3.80;;;2.30;;
12165;SDS011;6146;48.128;11.476;2023-08-31T12:41:43;2.10;;;1.80;;
12165;SDS011;6146;48.128;11.476;2023-08-31T12:44:08;2.20;;;2.00;;
12165;SDS011;6146;48.128;11.476;2023-08-31T12:46:34;2.90;;;2.27;;
12165;SDS011;6146;48.128;11.476;2023-08-31T12:49:00;3.00;;;2.30;;
12165;SDS011;6146;48.128;11.476;2023-08-31T12:51:28;3.37;;;1.90;;
12165;SDS011;6146;48.128;11.476;2023-08-31T12:53:54;2.60;;;2.03;;
12165;SDS011;6146;48.128;11.476;2023-08-31T12:56:21;2.83;;;2.10;;
12165;SDS011;6146;48.128;11.476;2023-08-31T12:58:50;3.47;;;2.13;;
12165;SDS011;6146;48.128;11.476;2023-08-31T13:01:16;2.23;;;2.00;;
12165;SDS011;6146;48.128;11.476;2023-08-31T13:03:43;3.53;;;2.17;;
12165;SDS011;6146;48.128;11.476;2023-08-31T13:06:09;2.93;;;1.97;;
12165;SDS011;6146;48.128;11.476;2023-08-31T13:08:34;5.00;;;2.00;;
12165;SDS011;6146;48.128;11.476;2023-08-31T13:11:00;3.27;;;1.90;;
12165;SDS011;6146;48.128;11.476;2023-08-31T13:13:25;3.37;;;2.30;;
12165;SDS011;6146;48.128;11.476;2023-08-31T13:15:51;3.63;;;2.30;;
12165;SDS011;6146;48.128;11.476;2023-08-31T13:18:17;4.03;;;2.20;;
12165;SDS011;6146;48.128;11.476;2023-08-31T13:20:49;2.20;;;2.00;;
12165;SDS011;6146;48.128;11.476;2023-08-31T13:23:15;3.70;;;2.47;;
12165;SDS011;6146;48.128;11.476;2023-08-31T13:25:41;2.77;;;2.00;;
12165;SDS011;6146;48.128;11.476;2023-08-31T13:28:07;3.70;;;2.27;;
12165;SDS011;6146;48.128;11.476;2023-08-31T13:30:32;3.90;;;1.93;;
12165;SDS011;6146;48.128;11.476;2023-08-31T13:32:58;4.90;;;2.27;;
12165;SDS011;6146;48.128;11.476;2023-08-31T13:35:23;2.67;;;2.00;;
12165;SDS011;6146;48.128;11.476;2023-08-31T13:37:50;3.27;;;2.40;;
12165;SDS011;6146;48.128;11.476;2023-08-31T13:40:16;5.60;;;2.67;;
12165;SDS011;6146;48.128;11.476;2023-08-31T13:42:49;3.13;;;2.23;;
12165;SDS011;6146;48.128;11.476;2023-08-31T13:45:19;2.87;;;2.20;;
12165;SDS011;6146;48.128;11.476;2023-08-31T13:47:45;4.77;;;1.90;;
12165;SDS011;6146;48.128;11.476;2023-08-31T13:50:14;3.93;;;2.50;;
12165;SDS011;6146;48.128;11.476;2023-08-31T13:52:40;3.70;;;2.00;;
12165;SDS011;6146;48.128;11.476;2023-08-31T13:55:06;5.13;;;2.30;;
12165;SDS011;6146;48.128;11.476;2023-08-31T13:57:32;2.77;;;2.27;;
12165;SDS011;6146;48.128;11.476;2023-08-31T13:59:58;4.73;;;2.20;;
12165;SDS011;6146;48.128;11.476;2023-08-31T14:02:23;2.97;;;1.90;;
12165;SDS011;6146;48.128;11.476;2023-08-31T14:04:49;2.67;;;1.93;;
12165;SDS011;6146;48.128;11.476;2023-08-31T14:07:14;3.57;;;2.00;;
12165;SDS011;6146;48.128;11.476;2023-08-31T14:09:40;3.60;;;2.33;;
12165;SDS011;6146;48.128;11.476;2023-08-31T14:12:05;3.60;;;2.40;;
12165;SDS011;6146;48.128;11.476;2023-08-31T14:14:31;2.20;;;1.90;;
12165;SDS011;6146;48.128;11.476;2023-08-31T14:16:57;2.47;;;2.03;;
12165;SDS011;6146;48.128;11.476;2023-08-31T14:19:22;2.83;;;2.10;;
12165;SDS011;6146;48.128;11.476;2023-08-31T14:21:48;2.97;;;1.90;;
12165;SDS011;6146;48.128;11.476;2023-08-31T14:24:13;3.30;;;2.23;;
12165;SDS011;6146;48.128;11.476;2023-08-31T14:26:39;2.87;;;2.20;;
12165;SDS011;6146;48.128;11.476;2023-08-31T14:29:05;3.43;;;2.20;;
12165;SDS011;6146;48.128;11.476;2023-08-31T14:31:30;2.93;;;2.10;;
12165;SDS011;6146;48.128;11.476;2023-08-31T14:33:56;4.27;;;1.90;;
12165;SDS011;6146;48.128;11.476;2023-08-31T14:36:21;4.33;;;2.40;;
12165;SDS011;6146;48.128;11.476;2023-08-31T14:38:47;2.43;;;1.93;;
12165;SDS011;6146;48.128;11.476;2023-08-31T14:41:12;3.00;;;1.90;;
12165;SDS011;6146;48.128;11.476;2023-08-31T14:43:38;2.73;;;1.90;;
12165;SDS011;6146;48.128;11.476;2023-08-31T14:46:04;3.77;;;2.27;;
12165;SDS011;6146;48.128;11.476;2023-08-31T14:48:30;4.77;;;2.20;;
12165;SDS011;6146;48.128;11.476;2023-08-31T14:50:57;4.63;;;2.13;;
12165;SDS011;6146;48.128;11.476;2023-08-31T14:53:25;3.53;;;2.57;;
12165;SDS011;6146;48.128;11.476;2023-08-31T14:55:52;3.47;;;2.00;;
12165;SDS011;6146;48.128;11.476;2023-08-31T14:58:18;5.17;;;2.33;;
12165;SDS011;6146;48.128;11.476;2023-08-31T15:00:44;4.07;;;2.27;;
12165;SDS011;6146;48.128;11.476;2023-08-31T15:03:12;3.03;;;2.40;;
12165;SDS011;6146;48.128;11.476;2023-08-31T15:05:38;2.43;;;1.80;;
12165;SDS011;6146;48.128;11.476;2023-08-31T15:08:07;3.50;;;2.50;;
12165;SDS011;6146;48.128;11.476;2023-08-31T15:10:33;4.00;;;2.30;;